Terminal Aerodrome Forecast
Issued by NWS Amarillo, TX

Home | Current Version | Previous Version | Text Only | Print | Product List | Glossary On
Versions: 1 2 3 4 5 6 7 8 9 10 11 12 13 14 15 16
000
FTUS44 KAMA 041130
TAFGUY
TAF
KGUY 041130Z 0412/0512 20010KT P6SM SCT120
     FM041600 19015G23KT P6SM SCT100 BKN200
     FM050200 18013KT P6SM SCT120 BKN200=

USA.gov is the U.S. government's official web portal to all federal, state and local government web resources and services.